Black Eagle — WDJJ — position and weather

sailwx.info

Track history (hours):
 
Tides and Currents Weather Stations Pressure Air Temp Water Temp Dewpoint Dewpoint Depression Visibility Wind Speed Wind Dir Waves Ship Positions

Black Eagle

Owner: Sealift Inc., Oyster Bay, NY. More information available from US FCC via Universal Licensing System and Coast Guard Vessel Documentation Center.

Last reported at 2017-Apr-20 15:38 UTC. Time now 2017-May-24 10:00 UTC.
Position N 05°10' W 003°58'.
Warning: this ship's position is 33 days out of date.

Length 190 m; draft 9.2 m.

Type: Cargo ship. MMSI: 369542000.

Date/timePositionNaut miles runAvg speedWind from/ knotsBaromVisibWave heightAir tempDewpointWater temp
2017-Apr-20 15:38N 05°10' W 003°58'212.4
2017-Apr-20 15:27N 05°13' W 003°58'4 6.9
2017-Apr-20 14:54N 05°16' W 004°01'2 5.4
2017-Apr-20 14:28N 05°18' W 004°01'0 0.0
2017-Apr-20 05:04N 05°18' W 004°01'0 0.0
2017-Apr-19 21:37N 05°18' W 004°01'0 0.0
2017-Apr-19 09:40N 05°18' W 004°01'0 0.0
2017-Apr-18 23:37N 05°18' W 004°01'0 0.0
2017-Apr-18 19:07N 05°18' W 004°01'0 0.0
2017-Apr-18 14:59N 05°18' W 004°01'2 1.6
2017-Apr-18 13:53N 05°16' W 004°02'3 7.4
2017-Apr-18 13:28N 05°14' W 003°59'2 3.9
2017-Apr-18 12:59N 05°13' W 003°59'1 0.8
2017-Apr-18 12:09N 05°13' W 003°59'1 4.8
2017-Apr-18 11:55N 05°12' W 004°00'3 6.2
2017-Apr-18 11:28N 05°12' W 004°03'2 0.1
2017-Apr-17 23:54N 05°13' W 004°05'0 0.0
2017-Apr-17 21:42N 05°13' W 004°05'0 0.0
2017-Apr-17 21:06N 05°13' W 004°05'0 0.1
2017-Apr-17 21:00N 05°13' W 004°05'0 0.0
2017-Apr-17 12:24N 05°13' W 004°05'0 0.1
2017-Apr-17 12:00N 05°13' W 004°05'0 0.0
2017-Apr-17 08:42N 05°13' W 004°05'0 0.0
2017-Apr-17 08:12N 05°13' W 004°05'0 0.1
2017-Apr-17 08:00N 05°13' W 004°05'0 0.0
2017-Apr-17 02:54N 05°13' W 004°05'0 0.0
2017-Apr-17 00:48N 05°13' W 004°05'0 0.0
2017-Apr-17 00:18N 05°13' W 004°05'0 0.0
2017-Apr-16 23:12N 05°13' W 004°05'0 0.1
2017-Apr-16 23:00N 05°13' W 004°05'0 0.0
2017-Apr-16 22:24N 05°13' W 004°05'0 0.0
2017-Apr-16 20:45N 05°13' W 004°05'0 0.0
2017-Apr-16 15:03N 05°13' W 004°05'0 0.0
2017-Apr-16 12:15N 05°13' W 004°05'0 0.0
2017-Apr-16 11:57N 05°13' W 004°05'0 0.0
2017-Apr-16 10:45N 05°13' W 004°05'0 0.0
2017-Apr-16 06:57N 05°13' W 004°05'0 0.0
2017-Apr-16 03:18N 05°13' W 004°05'0 0.2
2017-Apr-16 03:00N 05°13' W 004°05'0 0.0
2017-Apr-16 02:30N 05°13' W 004°05'0 0.0
2017-Apr-16 01:54N 05°13' W 004°05'0 0.0
2017-Apr-15 23:24N 05°13' W 004°05'0 0.1
2017-Apr-15 23:00N 05°13' W 004°05'0 0.0
2017-Apr-15 12:24N 05°13' W 004°05'0 1.1
2017-Apr-15 11:59N 05°12' W 004°05'3 5.7
2017-Apr-15 11:28N 05°11' W 004°02'2 5.0
2017-Apr-15 11:00N 05°11' W 003°60'  
2017-Apr-13 04:09N 08°41' W 015°38'614.9
2017-Apr-13 03:43N 08°45' W 015°43'1115.0
2017-Apr-13 03:00N 08°52' W 015°51'1515.4
2017-Apr-13 02:03N 09°02' W 016°02'115.4
2017-Apr-13 02:00N 09°02' W 016°03'1215.4
2017-Apr-13 01:14N 09°10' W 016°12'1915.3
2017-Apr-12 23:59N 09°21' W 016°27'7514.7
2017-Apr-12 18:52N 10°15' W 017°21'715.3
2017-Apr-12 18:26N 10°21' W 017°22'615.1
2017-Apr-12 18:00N 10°28' W 017°23'28915.5
2017-Apr-11 23:26N 15°16' W 017°43'915.9
2017-Apr-11 22:52N 15°24' W 017°39'616.2
2017-Apr-11 22:31N 15°29' W 017°37'4216.2
2017-Apr-11 19:53N 16°08' W 017°20'616.3
2017-Apr-11 19:30N 16°14' W 017°18'1615.9
2017-Apr-11 18:30N 16°29' W 017°11'  
Track history (hours):
 
Tides and Currents Weather Stations Pressure Air Temp Water Temp Dewpoint Dewpoint Depression Visibility Wind Speed Wind Dir Waves Ship Positions

Black Eagle

Owner: Sealift Inc., Oyster Bay, NY. More information available from US FCC via Universal Licensing System and Coast Guard Vessel Documentation Center.

Last reported at 2017-Apr-20 15:38 UTC. Time now 2017-May-24 10:00 UTC.
Position N 05°10' W 003°58'.
Warning: this ship's position is 33 days out of date.

Length 190 m; draft 9.2 m.

Type: Cargo ship. MMSI: 369542000.

Date/timePositionNaut miles runAvg speedWind from/ knotsBaromVisibWave heightAir tempDewpointWater temp
2017-Apr-20 15:38N 05°10' W 003°58'212.4
2017-Apr-20 15:27N 05°13' W 003°58'4 6.9
2017-Apr-20 14:54N 05°16' W 004°01'2 5.4
2017-Apr-20 14:28N 05°18' W 004°01'0 0.0
2017-Apr-20 05:04N 05°18' W 004°01'0 0.0
2017-Apr-19 21:37N 05°18' W 004°01'0 0.0
2017-Apr-19 09:40N 05°18' W 004°01'0 0.0
2017-Apr-18 23:37N 05°18' W 004°01'0 0.0
2017-Apr-18 19:07N 05°18' W 004°01'0 0.0
2017-Apr-18 14:59N 05°18' W 004°01'2 1.6
2017-Apr-18 13:53N 05°16' W 004°02'3 7.4
2017-Apr-18 13:28N 05°14' W 003°59'2 3.9
2017-Apr-18 12:59N 05°13' W 003°59'1 0.8
2017-Apr-18 12:09N 05°13' W 003°59'1 4.8
2017-Apr-18 11:55N 05°12' W 004°00'3 6.2
2017-Apr-18 11:28N 05°12' W 004°03'2 0.1
2017-Apr-17 23:54N 05°13' W 004°05'0 0.0
2017-Apr-17 21:42N 05°13' W 004°05'0 0.0
2017-Apr-17 21:06N 05°13' W 004°05'0 0.1
2017-Apr-17 21:00N 05°13' W 004°05'0 0.0
2017-Apr-17 12:24N 05°13' W 004°05'0 0.1
2017-Apr-17 12:00N 05°13' W 004°05'0 0.0
2017-Apr-17 08:42N 05°13' W 004°05'0 0.0
2017-Apr-17 08:12N 05°13' W 004°05'0 0.1
2017-Apr-17 08:00N 05°13' W 004°05'0 0.0
2017-Apr-17 02:54N 05°13' W 004°05'0 0.0
2017-Apr-17 00:48N 05°13' W 004°05'0 0.0
2017-Apr-17 00:18N 05°13' W 004°05'0 0.0
2017-Apr-16 23:12N 05°13' W 004°05'0 0.1
2017-Apr-16 23:00N 05°13' W 004°05'0 0.0
2017-Apr-16 22:24N 05°13' W 004°05'0 0.0
2017-Apr-16 20:45N 05°13' W 004°05'0 0.0
2017-Apr-16 15:03N 05°13' W 004°05'0 0.0
2017-Apr-16 12:15N 05°13' W 004°05'0 0.0
2017-Apr-16 11:57N 05°13' W 004°05'0 0.0
2017-Apr-16 10:45N 05°13' W 004°05'0 0.0
2017-Apr-16 06:57N 05°13' W 004°05'0 0.0
2017-Apr-16 03:18N 05°13' W 004°05'0 0.2
2017-Apr-16 03:00N 05°13' W 004°05'0 0.0
2017-Apr-16 02:30N 05°13' W 004°05'0 0.0
2017-Apr-16 01:54N 05°13' W 004°05'0 0.0
2017-Apr-15 23:24N 05°13' W 004°05'0 0.1
2017-Apr-15 23:00N 05°13' W 004°05'0 0.0
2017-Apr-15 12:24N 05°13' W 004°05'0 1.1
2017-Apr-15 11:59N 05°12' W 004°05'3 5.7
2017-Apr-15 11:28N 05°11' W 004°02'2 5.0
2017-Apr-15 11:00N 05°11' W 003°60'  
2017-Apr-13 04:09N 08°41' W 015°38'614.9
2017-Apr-13 03:43N 08°45' W 015°43'1115.0
2017-Apr-13 03:00N 08°52' W 015°51'1515.4
2017-Apr-13 02:03N 09°02' W 016°02'115.4
2017-Apr-13 02:00N 09°02' W 016°03'1215.4
2017-Apr-13 01:14N 09°10' W 016°12'1915.3
2017-Apr-12 23:59N 09°21' W 016°27'7514.7
2017-Apr-12 18:52N 10°15' W 017°21'715.3
2017-Apr-12 18:26N 10°21' W 017°22'615.1
2017-Apr-12 18:00N 10°28' W 017°23'28915.5
2017-Apr-11 23:26N 15°16' W 017°43'915.9
2017-Apr-11 22:52N 15°24' W 017°39'616.2
2017-Apr-11 22:31N 15°29' W 017°37'4216.2
2017-Apr-11 19:53N 16°08' W 017°20'616.3
2017-Apr-11 19:30N 16°14' W 017°18'1615.9
2017-Apr-11 18:30N 16°29' W 017°11'  

Dump ship's entire track history